Waskaganish Airport
CYKQ : now visible

Airfield :











YOU CAN JOIN US ON...

 
LOGIN :

Register | Disclaimer

   EN    FR    IT 

 









Legend :    VFR   Marginal VFR   IFR   Intensive IFR   Very Intensive IFR
Visi :
Ceiling :
>= 8 km
>= 3000ft
5 to 8 km
1000 to 3000 ft
1500m to 5 km
500 to 1000 ft
800 to 1500m
200 to 500 ft
< 800m
< 200 ft
Symbols :   Thunderstorms  Fog  Heavy snow  Heavy precipitations  Wind > 20 kt






- Airport Elevation : 80 ft
- IATA code : YKQ


CYKQ - Waskaganish

CURRENT METAR :
  • 301800Z CCA 16013G22KT 2SM -SHRA BR OVC062TCU 19/08 A2976 RMK TCU8 SLP080 DENSITY ALT 800FT

EXPIRED METARs :
  • 301700Z 15015G24KT 15SM OVC082 20/07 A2978 RMK AC8 SLP088 DENSITY ALT 800FT
  • 301600Z 14010G18KT 15SM OVC097 19/08 A2983 RMK AC8 SLP105 DENSITY ALT 700FT

TAF AMD TAF CYKQ
Valid from the 30 at 18:00 until the 30 at 21:00 UTC


301823Z 3018/3021 17015G25KT P6SM -RA OVC030
TEMPO 3018/3021 2SM -SHRA BR BKN009 OVC020
PROB30 3019/3021 2SM TSRA BR BKN007 OVC015CB RMK NXT FCST BY 011500Z
CZUL FIR / North America



MET'MAP, your aeronautical weather chart ! - Copyright ORBIFLY December 2007 - Disclaimer

ORBIFLY MET'MAP TEAM :

Programming & Development : Alexandra Zaïnal
Original concept : Baudouin d'Aumeries
Technical & hardware support : Manuel Goepfert
Assistance : Marc-Olivier Méhu




SOURCES & CREDITS :

   NOAA       Earth
Advisory